PWSweather.com
Personal Weather Stations
Station Observations
KMOSTLOU24
Lindenwood Park , St. Louis, MO 63109

Lindenwood Park St. Louis, MO 63109

Lat: 38.597, Lon: -90.315

Elevation: 468

Station Type: Honeywell TN924W

http://lpweather.herobo.com

Latest ConditionsUpdated 4:10:04 PM CDT Thursday, Apr 24, 2014
Currently Today's Max Today's Min Today's Average
Temperature 77.9°F25.5°C 78.8°F26.0°C 50.5°F10.3°C 61.4°F16.3°C
Dew Point 50.9°F10.5°C 51.3°F10.7°C 34.8°F1.6°C 39.9°F4.4°C
Winds 3.0 mph S4.8 kmh S 3.3 mph SW5.3 kmh SW - 1.4 mph 2.3 kmh
Wind Gusts 3.0 mph4.8 kmh 8.5 mph13.7 kmh - -
Humidity 39% 56% 36% 46%
Pressure 29.61 in1002.7 mb 29.94 in1013.9 mb 29.61 in1002.7 mb -
Hour Temp Dew Point Humidity Winds Wind Gusts Pressure Precip Precip Rate Daily Precip Total
04:10 PM 77.9°F25.5°C 50.9°F10.5°C 39% 3.0 mph S4.8 kmh S 3.0 mph4.8 kmh 29.61 in1002.7 mb 0.00 in0.0 mm 0.00 in/hr0.0 mm/hr 0.00 in0.0 mm
04:00 PM 78.3°F25.7°C 51.3°F10.7°C 39% 2.9 mph SE4.7 kmh SE 6.2 mph10.0 kmh 29.61 in1002.7 mb 0.00 in0.0 mm 0.00 in/hr0.0 mm/hr 0.00 in0.0 mm
03:50 PM 78.3°F25.7°C 51.3°F10.7°C 39% 2.2 mph S3.5 kmh S 3.8 mph6.1 kmh 29.61 in1002.7 mb 0.00 in0.0 mm 0.00 in/hr0.0 mm/hr 0.00 in0.0 mm
03:40 PM 78.6°F25.9°C 50.2°F10.1°C 37% 2.6 mph SE4.2 kmh SE 8.2 mph13.2 kmh 29.63 in1003.4 mb 0.00 in0.0 mm 0.00 in/hr0.0 mm/hr 0.00 in0.0 mm
03:30 PM 77.7°F25.4°C 50.1°F10.1°C 38% 2.6 mph SE4.2 kmh SE 3.3 mph5.3 kmh 29.63 in1003.4 mb 0.00 in0.0 mm 0.00 in/hr0.0 mm/hr 0.00 in0.0 mm
03:20 PM 77.9°F25.5°C 49.5°F9.7°C 37% 2.9 mph WSW4.7 kmh WSW 3.0 mph4.8 kmh 29.64 in1003.7 mb 0.00 in0.0 mm 0.00 in/hr0.0 mm/hr 0.00 in0.0 mm
03:10 PM 78.8°F26.0°C 50.3°F10.2°C 37% 2.6 mph S4.2 kmh S 5.1 mph8.2 kmh 29.64 in1003.7 mb 0.00 in0.0 mm 0.00 in/hr0.0 mm/hr 0.00 in0.0 mm
03:00 PM 78.4°F25.8°C 50.0°F10.0°C 37% 2.5 mph S4.0 kmh S 2.1 mph3.4 kmh 29.65 in1004.1 mb 0.00 in0.0 mm 0.00 in/hr0.0 mm/hr 0.00 in0.0 mm
02:50 PM 77.7°F25.4°C 49.4°F9.7°C 37% 2.0 mph S3.2 kmh S 2.6 mph4.2 kmh 29.65 in1004.1 mb 0.00 in0.0 mm 0.00 in/hr0.0 mm/hr 0.00 in0.0 mm
02:40 PM 77.5°F25.3°C 49.2°F9.6°C 37% 3.2 mph SE5.1 kmh SE 2.4 mph3.9 kmh 29.67 in1004.7 mb 0.00 in0.0 mm 0.00 in/hr0.0 mm/hr 0.00 in0.0 mm
02:30 PM 77.4°F25.2°C 48.3°F9.1°C 36% 3.3 mph SW5.3 kmh SW 8.5 mph13.7 kmh 29.67 in1004.7 mb 0.00 in0.0 mm 0.00 in/hr0.0 mm/hr 0.00 in0.0 mm
02:20 PM 77.2°F25.1°C 48.9°F9.4°C 37% 3.1 mph SE5.0 kmh SE 4.8 mph7.7 kmh 29.69 in1005.4 mb 0.00 in0.0 mm 0.00 in/hr0.0 mm/hr 0.00 in0.0 mm
02:10 PM 76.1°F24.5°C 47.9°F8.8°C 37% 2.8 mph NW4.5 kmh NW 2.6 mph4.2 kmh 29.69 in1005.4 mb 0.00 in0.0 mm 0.00 in/hr0.0 mm/hr 0.00 in0.0 mm
02:00 PM 76.1°F24.5°C 47.2°F8.4°C 36% 3.3 mph SW5.3 kmh SW 5.2 mph8.4 kmh 29.71 in1006.1 mb 0.00 in0.0 mm 0.00 in/hr0.0 mm/hr 0.00 in0.0 mm
01:50 PM 76.1°F24.5°C 47.2°F8.4°C 36% 2.3 mph S3.7 kmh S 2.6 mph4.2 kmh 29.71 in1006.1 mb 0.00 in0.0 mm 0.00 in/hr0.0 mm/hr 0.00 in0.0 mm
01:40 PM 76.1°F24.5°C 47.2°F8.4°C 36% 3.0 mph NE4.8 kmh NE 3.2 mph5.1 kmh 29.72 in1006.4 mb 0.00 in0.0 mm 0.00 in/hr0.0 mm/hr 0.00 in0.0 mm
01:30 PM 75.2°F24.0°C 47.1°F8.4°C 37% 2.1 mph SE3.4 kmh SE 3.7 mph6.0 kmh 29.72 in1006.4 mb 0.00 in0.0 mm 0.00 in/hr0.0 mm/hr 0.00 in0.0 mm
01:20 PM 74.7°F23.7°C 45.9°F7.7°C 36% 2.1 mph SW3.4 kmh SW 1.3 mph2.1 kmh 29.75 in1007.5 mb 0.00 in0.0 mm 0.00 in/hr0.0 mm/hr 0.00 in0.0 mm
01:10 PM 74.1°F23.4°C 46.2°F7.9°C 37% 2.0 mph S3.2 kmh S 2.3 mph3.7 kmh 29.75 in1007.5 mb 0.00 in0.0 mm 0.00 in/hr0.0 mm/hr 0.00 in0.0 mm
01:00 PM 73.6°F23.1°C 45.7°F7.6°C 37% 2.0 mph S3.2 kmh S 3.8 mph6.1 kmh 29.77 in1008.1 mb 0.00 in0.0 mm 0.00 in/hr0.0 mm/hr 0.00 in0.0 mm
12:50 PM 72.7°F22.6°C 44.9°F7.2°C 37% 1.6 mph SE2.6 kmh SE 1.6 mph2.6 kmh 29.77 in1008.1 mb 0.00 in0.0 mm 0.00 in/hr0.0 mm/hr 0.00 in0.0 mm
12:40 PM 72.3°F22.4°C 44.6°F7.0°C 37% 1.4 mph SE2.3 kmh SE -- 29.78 in1008.5 mb 0.00 in0.0 mm 0.00 in/hr0.0 mm/hr 0.00 in0.0 mm
12:30 PM 71.4°F21.9°C 44.5°F6.9°C 38% 1.6 mph N2.6 kmh N 1.2 mph1.9 kmh 29.78 in1008.5 mb 0.00 in0.0 mm 0.00 in/hr0.0 mm/hr 0.00 in0.0 mm
12:20 PM 70.7°F21.5°C 43.8°F6.6°C 38% 2.1 mph SE3.4 kmh SE 1.8 mph2.9 kmh 29.79 in1008.8 mb 0.00 in0.0 mm 0.00 in/hr0.0 mm/hr 0.00 in0.0 mm
12:10 PM 71.1°F21.7°C 43.5°F6.4°C 37% 2.6 mph E4.2 kmh E 4.3 mph6.9 kmh 29.79 in1008.8 mb 0.00 in0.0 mm 0.00 in/hr0.0 mm/hr 0.00 in0.0 mm
12:00 PM 70.7°F21.5°C 45.2°F7.3°C 40% 1.4 mph SE2.3 kmh SE 2.3 mph3.7 kmh 29.81 in1009.5 mb 0.00 in0.0 mm 0.00 in/hr0.0 mm/hr 0.00 in0.0 mm
11:50 AM 69.4°F20.8°C 43.4°F6.3°C 39% 2.4 mph S3.9 kmh S 2.6 mph4.2 kmh 29.81 in1009.5 mb 0.00 in0.0 mm 0.00 in/hr0.0 mm/hr 0.00 in0.0 mm
11:40 AM 69.1°F20.6°C 42.4°F5.8°C 38% 2.3 mph S3.7 kmh S 6.2 mph10.0 kmh 29.80 in1009.1 mb 0.00 in0.0 mm 0.00 in/hr0.0 mm/hr 0.00 in0.0 mm
11:30 AM 68.2°F20.1°C 42.9°F6.1°C 40% 1.7 mph SE2.7 kmh SE 2.0 mph3.2 kmh 29.80 in1009.1 mb 0.00 in0.0 mm 0.00 in/hr0.0 mm/hr 0.00 in0.0 mm
11:20 AM 68.4°F20.2°C 42.4°F5.8°C 39% 2.0 mph S3.2 kmh S 4.4 mph7.1 kmh 29.80 in1009.1 mb 0.00 in0.0 mm 0.00 in/hr0.0 mm/hr 0.00 in0.0 mm
11:10 AM 68.0°F20.0°C 42.8°F6.0°C 40% 2.0 mph SE3.2 kmh SE 2.0 mph3.2 kmh 29.80 in1009.1 mb 0.00 in0.0 mm 0.00 in/hr0.0 mm/hr 0.00 in0.0 mm
11:00 AM 67.1°F19.5°C 42.6°F5.9°C 41% 2.3 mph E3.7 kmh E 2.0 mph3.2 kmh 29.80 in1009.1 mb 0.00 in0.0 mm 0.00 in/hr0.0 mm/hr 0.00 in0.0 mm
10:50 AM 66.0°F18.9°C 42.3°F5.7°C 42% 2.1 mph SE3.4 kmh SE 2.6 mph4.2 kmh 29.80 in1009.1 mb 0.00 in0.0 mm 0.00 in/hr0.0 mm/hr 0.00 in0.0 mm
10:40 AM 64.8°F18.2°C 41.1°F5.1°C 42% 2.2 mph E3.5 kmh E 2.8 mph4.5 kmh 29.80 in1009.1 mb 0.00 in0.0 mm 0.00 in/hr0.0 mm/hr 0.00 in0.0 mm
10:30 AM 64.2°F17.9°C 40.6°F4.8°C 42% 2.1 mph SE3.4 kmh SE 3.6 mph5.8 kmh 29.80 in1009.1 mb 0.00 in0.0 mm 0.00 in/hr0.0 mm/hr 0.00 in0.0 mm
10:20 AM 64.4°F18.0°C 40.8°F4.9°C 42% 2.0 mph SE3.2 kmh SE 3.1 mph5.0 kmh 29.82 in1009.8 mb 0.00 in0.0 mm 0.00 in/hr0.0 mm/hr 0.00 in0.0 mm
10:10 AM 64.9°F18.3°C 40.7°F4.8°C 41% 2.0 mph SE3.2 kmh SE 4.4 mph7.1 kmh 29.82 in1009.8 mb 0.00 in0.0 mm 0.00 in/hr0.0 mm/hr 0.00 in0.0 mm
10:00 AM 64.2°F17.9°C 40.6°F4.8°C 42% 1.8 mph SE2.9 kmh SE 1.7 mph2.7 kmh 29.82 in1009.8 mb 0.00 in0.0 mm 0.00 in/hr0.0 mm/hr 0.00 in0.0 mm
09:50 AM 62.8°F17.1°C 40.0°F4.4°C 43% 2.3 mph E3.7 kmh E 3.5 mph5.6 kmh 29.82 in1009.8 mb 0.00 in0.0 mm 0.00 in/hr0.0 mm/hr 0.00 in0.0 mm
09:40 AM 62.4°F16.9°C 40.2°F4.6°C 44% 2.8 mph SW4.5 kmh SW 2.6 mph4.2 kmh 29.83 in1010.2 mb 0.00 in0.0 mm 0.00 in/hr0.0 mm/hr 0.00 in0.0 mm
09:30 AM 61.5°F16.4°C 39.4°F4.1°C 44% 1.8 mph S2.9 kmh S 7.0 mph11.3 kmh 29.83 in1010.2 mb 0.00 in0.0 mm 0.00 in/hr0.0 mm/hr 0.00 in0.0 mm
09:20 AM 60.4°F15.8°C 39.0°F3.9°C 45% 2.5 mph E4.0 kmh E 3.3 mph5.3 kmh 29.83 in1010.2 mb 0.00 in0.0 mm 0.00 in/hr0.0 mm/hr 0.00 in0.0 mm
09:10 AM 59.9°F15.5°C 39.1°F3.9°C 46% 2.0 mph SE3.2 kmh SE 3.8 mph6.1 kmh 29.83 in1010.2 mb 0.00 in0.0 mm 0.00 in/hr0.0 mm/hr 0.00 in0.0 mm
09:00 AM 58.8°F14.9°C 38.6°F3.7°C 47% 2.0 mph S3.2 kmh S 1.4 mph2.3 kmh 29.85 in1010.8 mb 0.00 in0.0 mm 0.00 in/hr0.0 mm/hr 0.00 in0.0 mm
08:50 AM 59.1°F15.1°C 38.9°F3.8°C 47% 0.9 mph E1.4 kmh E 3.8 mph6.1 kmh 29.86 in1011.2 mb 0.00 in0.0 mm 0.00 in/hr0.0 mm/hr 0.00 in0.0 mm
08:40 AM 57.4°F14.1°C 37.8°F3.2°C 48% 2.0 mph SE3.2 kmh SE 2.8 mph4.5 kmh 29.86 in1011.2 mb 0.00 in0.0 mm 0.00 in/hr0.0 mm/hr 0.00 in0.0 mm
08:30 AM 57.4°F14.1°C 38.4°F3.6°C 49% 1.7 mph SE2.7 kmh SE 2.3 mph3.7 kmh 29.86 in1011.2 mb 0.00 in0.0 mm 0.00 in/hr0.0 mm/hr 0.00 in0.0 mm
08:20 AM 57.0°F13.9°C 38.0°F3.3°C 49% 1.5 mph E2.4 kmh E 2.1 mph3.4 kmh 29.86 in1011.2 mb 0.00 in0.0 mm 0.00 in/hr0.0 mm/hr 0.00 in0.0 mm
08:10 AM 55.8°F13.2°C 38.4°F3.6°C 52% 1.3 mph S2.1 kmh S 1.6 mph2.6 kmh 29.86 in1011.2 mb 0.00 in0.0 mm 0.00 in/hr0.0 mm/hr 0.00 in0.0 mm
08:00 AM 54.5°F12.5°C 38.2°F3.4°C 54% 1.0 mph E1.6 kmh E 1.4 mph2.3 kmh 29.87 in1011.5 mb 0.00 in0.0 mm 0.00 in/hr0.0 mm/hr 0.00 in0.0 mm
07:50 AM 52.3°F11.3°C 36.6°F2.6°C 55% 0.6 mph SE1.0 kmh SE -- 29.87 in1011.5 mb 0.00 in0.0 mm 0.00 in/hr0.0 mm/hr 0.00 in0.0 mm
07:40 AM 52.0°F11.1°C 36.3°F2.4°C 55% 1.0 mph SE1.6 kmh SE 2.2 mph3.5 kmh 29.88 in1011.9 mb 0.00 in0.0 mm 0.00 in/hr0.0 mm/hr 0.00 in0.0 mm
07:30 AM 51.6°F10.9°C 36.4°F2.4°C 56% 0.6 mph SE1.0 kmh SE 1.3 mph2.1 kmh 29.88 in1011.9 mb 0.00 in0.0 mm 0.00 in/hr0.0 mm/hr 0.00 in0.0 mm
07:20 AM 51.1°F10.6°C 35.9°F2.2°C 56% 0.5 mph S0.8 kmh S 1.0 mph1.6 kmh 29.88 in1011.9 mb 0.00 in0.0 mm 0.00 in/hr0.0 mm/hr 0.00 in0.0 mm
07:10 AM 50.9°F10.5°C 35.7°F2.1°C 56% 0.3 mph SE0.5 kmh SE -- 29.88 in1011.9 mb 0.00 in0.0 mm 0.00 in/hr0.0 mm/hr 0.00 in0.0 mm
07:00 AM 50.9°F10.5°C 35.7°F2.1°C 56% 0.1 mph SE0.2 kmh SE 1.3 mph2.1 kmh 29.88 in1011.9 mb 0.00 in0.0 mm 0.00 in/hr0.0 mm/hr 0.00 in0.0 mm
06:50 AM 50.5°F10.3°C 35.4°F1.9°C 56% Calm Calm -- 29.88 in1011.9 mb 0.00 in0.0 mm 0.00 in/hr0.0 mm/hr 0.00 in0.0 mm
06:40 AM 50.5°F10.3°C 35.4°F1.9°C 56% 0.2 mph W0.3 kmh W -- 29.88 in1011.9 mb 0.00 in0.0 mm 0.00 in/hr0.0 mm/hr 0.00 in0.0 mm
06:30 AM 50.9°F10.5°C 35.3°F1.8°C 55% Calm Calm -- 29.88 in1011.9 mb 0.00 in0.0 mm 0.00 in/hr0.0 mm/hr 0.00 in0.0 mm
06:20 AM 51.1°F10.6°C 35.5°F1.9°C 55% 0.6 mph E1.0 kmh E -- 29.88 in1011.9 mb 0.00 in0.0 mm 0.00 in/hr0.0 mm/hr 0.00 in0.0 mm
06:10 AM 51.1°F10.6°C 35.5°F1.9°C 55% 0.5 mph SE0.8 kmh SE 2.0 mph3.2 kmh 29.88 in1011.9 mb 0.00 in0.0 mm 0.00 in/hr0.0 mm/hr 0.00 in0.0 mm
06:00 AM 51.3°F10.7°C 35.6°F2.0°C 55% 0.9 mph SE1.4 kmh SE 1.2 mph1.9 kmh 29.88 in1011.9 mb 0.00 in0.0 mm 0.00 in/hr0.0 mm/hr 0.00 in0.0 mm
05:50 AM 51.3°F10.7°C 35.2°F1.8°C 54% 0.6 mph S1.0 kmh S 2.8 mph4.5 kmh 29.88 in1011.9 mb 0.00 in0.0 mm 0.00 in/hr0.0 mm/hr 0.00 in0.0 mm
05:40 AM 51.1°F10.6°C 35.5°F1.9°C 55% Calm Calm 1.3 mph2.1 kmh 29.88 in1011.9 mb 0.00 in0.0 mm 0.00 in/hr0.0 mm/hr 0.00 in0.0 mm
05:30 AM 51.3°F10.7°C 35.2°F1.8°C 54% 0.6 mph SE1.0 kmh SE -- 29.88 in1011.9 mb 0.00 in0.0 mm 0.00 in/hr0.0 mm/hr 0.00 in0.0 mm
05:20 AM 51.1°F10.6°C 35.5°F1.9°C 55% 0.3 mph E0.5 kmh E 1.2 mph1.9 kmh 29.88 in1011.9 mb 0.00 in0.0 mm 0.00 in/hr0.0 mm/hr 0.00 in0.0 mm
05:10 AM 50.9°F10.5°C 35.3°F1.8°C 55% 0.1 mph SE0.2 kmh SE -- 29.88 in1011.9 mb 0.00 in0.0 mm 0.00 in/hr0.0 mm/hr 0.00 in0.0 mm
05:00 AM 51.1°F10.6°C 35.5°F1.9°C 55% 0.1 mph SE0.2 kmh SE -- 29.88 in1011.9 mb 0.00 in0.0 mm 0.00 in/hr0.0 mm/hr 0.00 in0.0 mm
04:50 AM 51.6°F10.9°C 36.0°F2.2°C 55% Calm Calm -- 29.88 in1011.9 mb 0.00 in0.0 mm 0.00 in/hr0.0 mm/hr 0.00 in0.0 mm
04:40 AM 51.6°F10.9°C 35.5°F1.9°C 54% Calm Calm -- 29.88 in1011.9 mb 0.00 in0.0 mm 0.00 in/hr0.0 mm/hr 0.00 in0.0 mm
04:30 AM 51.8°F11.0°C 35.2°F1.8°C 53% 0.1 mph SE0.2 kmh SE -- 29.88 in1011.9 mb 0.00 in0.0 mm 0.00 in/hr0.0 mm/hr 0.00 in0.0 mm
04:20 AM 52.0°F11.1°C 35.4°F1.9°C 53% 0.3 mph E0.5 kmh E -- 29.87 in1011.5 mb 0.00 in0.0 mm 0.00 in/hr0.0 mm/hr 0.00 in0.0 mm
04:10 AM 52.3°F11.3°C 35.7°F2.1°C 53% 0.7 mph S1.1 kmh S 1.4 mph2.3 kmh 29.87 in1011.5 mb 0.00 in0.0 mm 0.00 in/hr0.0 mm/hr 0.00 in0.0 mm
04:00 AM 52.3°F11.3°C 35.2°F1.8°C 52% 0.7 mph SE1.1 kmh SE 1.8 mph2.9 kmh 29.88 in1011.9 mb 0.00 in0.0 mm 0.00 in/hr0.0 mm/hr 0.00 in0.0 mm
03:50 AM 52.7°F11.5°C 35.6°F2.0°C 52% 0.9 mph SE1.4 kmh SE 1.4 mph2.3 kmh 29.88 in1011.9 mb 0.00 in0.0 mm 0.00 in/hr0.0 mm/hr 0.00 in0.0 mm
03:40 AM 52.7°F11.5°C 35.6°F2.0°C 52% 0.8 mph S1.3 kmh S -- 29.88 in1011.9 mb 0.00 in0.0 mm 0.00 in/hr0.0 mm/hr 0.00 in0.0 mm
03:30 AM 53.1°F11.7°C 35.4°F1.9°C 51% 0.9 mph SE1.4 kmh SE 1.2 mph1.9 kmh 29.88 in1011.9 mb 0.00 in0.0 mm 0.00 in/hr0.0 mm/hr 0.00 in0.0 mm
03:20 AM 53.1°F11.7°C 35.4°F1.9°C 51% 0.3 mph SE0.5 kmh SE 1.7 mph2.7 kmh 29.88 in1011.9 mb 0.00 in0.0 mm 0.00 in/hr0.0 mm/hr 0.00 in0.0 mm
03:10 AM 53.2°F11.8°C 35.1°F1.7°C 50% 0.2 mph S0.3 kmh S -- 29.88 in1011.9 mb 0.00 in0.0 mm 0.00 in/hr0.0 mm/hr 0.00 in0.0 mm
03:00 AM 53.4°F11.9°C 35.7°F2.1°C 51% 0.3 mph SE0.5 kmh SE 1.2 mph1.9 kmh 29.89 in1012.2 mb 0.00 in0.0 mm 0.00 in/hr0.0 mm/hr 0.00 in0.0 mm
02:50 AM 53.8°F12.1°C 36.1°F2.3°C 51% 0.5 mph SE0.8 kmh SE 1.3 mph2.1 kmh 29.89 in1012.2 mb 0.00 in0.0 mm 0.00 in/hr0.0 mm/hr 0.00 in0.0 mm
02:40 AM 53.8°F12.1°C 36.1°F2.3°C 51% 0.7 mph SE1.1 kmh SE 1.3 mph2.1 kmh 29.89 in1012.2 mb 0.00 in0.0 mm 0.00 in/hr0.0 mm/hr 0.00 in0.0 mm
02:30 AM 54.0°F12.2°C 35.7°F2.1°C 50% 0.2 mph S0.3 kmh S 2.4 mph3.9 kmh 29.89 in1012.2 mb 0.00 in0.0 mm 0.00 in/hr0.0 mm/hr 0.00 in0.0 mm
02:20 AM 54.0°F12.2°C 35.2°F1.8°C 49% 0.2 mph SE0.3 kmh SE -- 29.89 in1012.2 mb 0.00 in0.0 mm 0.00 in/hr0.0 mm/hr 0.00 in0.0 mm
02:10 AM 54.3°F12.4°C 35.0°F1.7°C 48% 0.1 mph SE0.2 kmh SE -- 29.89 in1012.2 mb 0.00 in0.0 mm 0.00 in/hr0.0 mm/hr 0.00 in0.0 mm
02:00 AM 54.7°F12.6°C 35.4°F1.9°C 48% 0.2 mph S0.3 kmh S 1.2 mph1.9 kmh 29.89 in1012.2 mb 0.00 in0.0 mm 0.00 in/hr0.0 mm/hr 0.00 in0.0 mm
01:50 AM 54.9°F12.7°C 35.0°F1.7°C 47% 0.5 mph SE0.8 kmh SE 1.2 mph1.9 kmh 29.89 in1012.2 mb 0.00 in0.0 mm 0.00 in/hr0.0 mm/hr 0.00 in0.0 mm
01:40 AM 55.2°F12.9°C 35.3°F1.8°C 47% 0.9 mph SE1.4 kmh SE 1.8 mph2.9 kmh 29.90 in1012.5 mb 0.00 in0.0 mm 0.00 in/hr0.0 mm/hr 0.00 in0.0 mm
01:30 AM 55.2°F12.9°C 34.8°F1.6°C 46% 0.7 mph SE1.1 kmh SE -- 29.90 in1012.5 mb 0.00 in0.0 mm 0.00 in/hr0.0 mm/hr 0.00 in0.0 mm
01:20 AM 55.4°F13.0°C 34.9°F1.6°C 46% 1.0 mph S1.6 kmh S 1.2 mph1.9 kmh 29.91 in1012.9 mb 0.00 in0.0 mm 0.00 in/hr0.0 mm/hr 0.00 in0.0 mm
01:10 AM 55.4°F13.0°C 34.9°F1.6°C 46% 1.3 mph SE2.1 kmh SE 2.0 mph3.2 kmh 29.91 in1012.9 mb 0.00 in0.0 mm 0.00 in/hr0.0 mm/hr 0.00 in0.0 mm
01:00 AM 55.4°F13.0°C 34.9°F1.6°C 46% 1.7 mph E2.7 kmh E 3.3 mph5.3 kmh 29.92 in1013.2 mb 0.00 in0.0 mm 0.00 in/hr0.0 mm/hr 0.00 in0.0 mm
12:50 AM 55.6°F13.1°C 35.1°F1.7°C 46% 1.5 mph NW2.4 kmh NW 2.5 mph4.0 kmh 29.92 in1013.2 mb 0.00 in0.0 mm 0.00 in/hr0.0 mm/hr 0.00 in0.0 mm
12:40 AM 55.8°F13.2°C 35.3°F1.8°C 46% 1.2 mph SE1.9 kmh SE 3.0 mph4.8 kmh 29.92 in1013.2 mb 0.00 in0.0 mm 0.00 in/hr0.0 mm/hr 0.00 in0.0 mm
12:30 AM 55.9°F13.3°C 35.4°F1.9°C 46% 0.9 mph W1.4 kmh W -- 29.92 in1013.2 mb 0.00 in0.0 mm 0.00 in/hr0.0 mm/hr 0.00 in0.0 mm
12:20 AM 55.9°F13.3°C 35.4°F1.9°C 46% 0.9 mph SE1.4 kmh SE 2.0 mph3.2 kmh 29.93 in1013.5 mb 0.00 in0.0 mm 0.00 in/hr0.0 mm/hr 0.00 in0.0 mm
12:10 AM 56.1°F13.4°C 35.6°F2.0°C 46% 1.2 mph SE1.9 kmh SE 1.6 mph2.6 kmh 29.93 in1013.5 mb 0.00 in0.0 mm 0.00 in/hr0.0 mm/hr 0.00 in0.0 mm
12:00 AM 56.3°F13.5°C 35.2°F1.8°C 45% 1.3 mph S2.1 kmh S 1.7 mph2.7 kmh 29.94 in1013.9 mb 0.00 in0.0 mm 0.00 in/hr0.0 mm/hr 0.00 in0.0 mm